sensor_id;sensor_type;location;lat;lon;timestamp;pressure;altitude;pressure_sealevel;temperature;humidity
50652;BME280;66928;52.086;5.240;2023-07-13T00:26:55;101155.0;;;19.7;66.06
50652;BME280;66928;52.086;5.240;2023-07-13T01:28:42;101178.0;;;19.06;69.23
50652;BME280;66928;52.086;5.240;2023-07-13T01:54:25;101180.0;;;18.87;71.3
50652;BME280;66928;52.086;5.240;2023-07-13T02:49:03;101191.0;;;18.43;75.87
50652;BME280;66928;52.086;5.240;2023-07-13T03:50:16;101220.0;;;18.2;78.13
50652;BME280;66928;52.086;5.240;2023-07-13T04:01:50;101230.0;;;18.11;78.83
50652;BME280;66928;52.086;5.240;2023-07-13T05:40:01;101292.0;;;19.14;78.14
50652;BME280;66928;52.086;5.240;2023-07-13T05:43:14;101295.0;;;19.18;78.19
50652;BME280;66928;52.086;5.240;2023-07-13T05:44:51;101295.0;;;19.09;78.91
50652;BME280;66928;52.086;5.240;2023-07-13T05:46:28;101294.0;;;19.03;79.25
50652;BME280;66928;52.086;5.240;2023-07-13T05:48:04;101297.0;;;19.13;78.77
50652;BME280;66928;52.086;5.240;2023-07-13T05:51:16;101299.0;;;19.2;78.7
50652;BME280;66928;52.086;5.240;2023-07-13T05:52:53;101301.0;;;19.2;78.63
50652;BME280;66928;52.086;5.240;2023-07-13T05:54:29;101305.0;;;19.34;78.33
50652;BME280;66928;52.086;5.240;2023-07-13T05:57:41;101305.0;;;19.43;78.25
50652;BME280;66928;52.086;5.240;2023-07-13T05:59:17;101312.0;;;19.37;78.3
50652;BME280;66928;52.086;5.240;2023-07-13T06:01:00;101311.0;;;19.39;78.52
50652;BME280;66928;52.086;5.240;2023-07-13T06:04:12;101317.0;;;19.47;78.22
50652;BME280;66928;52.086;5.240;2023-07-13T06:05:49;101319.0;;;19.3;78.74
50652;BME280;66928;52.086;5.240;2023-07-13T06:07:25;101320.0;;;19.57;77.7
50652;BME280;66928;52.086;5.240;2023-07-13T06:09:01;101323.0;;;19.66;77.44
50652;BME280;66928;52.086;5.240;2023-07-13T06:12:14;101324.0;;;19.77;76.88
50652;BME280;66928;52.086;5.240;2023-07-13T06:13:51;101330.0;;;19.78;76.91
50652;BME280;66928;52.086;5.240;2023-07-13T06:15:27;101330.0;;;19.86;76.94
50652;BME280;66928;52.086;5.240;2023-07-13T06:18:41;101333.0;;;19.95;76.72
50652;BME280;66928;52.086;5.240;2023-07-13T06:20:18;101337.0;;;19.79;76.99
50652;BME280;66928;52.086;5.240;2023-07-13T06:21:54;101341.0;;;20.04;76.48
50652;BME280;66928;52.086;5.240;2023-07-13T06:25:07;101345.0;;;19.96;76.55
50652;BME280;66928;52.086;5.240;2023-07-13T06:26:43;101348.0;;;20.11;76.03
50652;BME280;66928;52.086;5.240;2023-07-13T06:28:19;101344.0;;;19.93;76.62
50652;BME280;66928;52.086;5.240;2023-07-13T06:29:55;101345.0;;;19.97;76.47
50652;BME280;66928;52.086;5.240;2023-07-13T06:33:07;101347.0;;;19.95;76.56
50652;BME280;66928;52.086;5.240;2023-07-13T06:34:43;101349.0;;;20.06;76.23
50652;BME280;66928;52.086;5.240;2023-07-13T06:36:19;101353.0;;;20.14;75.92
50652;BME280;66928;52.086;5.240;2023-07-13T06:39:32;101355.0;;;20.11;75.94
50652;BME280;66928;52.086;5.240;2023-07-13T06:41:09;101349.0;;;20.06;76.23
50652;BME280;66928;52.086;5.240;2023-07-13T06:42:45;101353.0;;;20.11;75.87
50652;BME280;66928;52.086;5.240;2023-07-13T06:45:58;101347.0;;;20.06;75.99
50652;BME280;66928;52.086;5.240;2023-07-13T06:47:34;101350.0;;;20.04;76.08
50652;BME280;66928;52.086;5.240;2023-07-13T06:49:10;101348.0;;;20.11;76.22
50652;BME280;66928;52.086;5.240;2023-07-13T06:50:48;101349.0;;;20.25;75.48
50652;BME280;66928;52.086;5.240;2023-07-13T06:54:01;101355.0;;;20.31;75.11
50652;BME280;66928;52.086;5.240;2023-07-13T06:55:37;101355.0;;;20.41;75.48
50652;BME280;66928;52.086;5.240;2023-07-13T06:57:14;101355.0;;;20.29;75.25
50652;BME280;66928;52.086;5.240;2023-07-13T07:00:26;101363.0;;;20.09;76.27
50652;BME280;66928;52.086;5.240;2023-07-13T07:02:03;101368.0;;;20.39;75.47
50652;BME280;66928;52.086;5.240;2023-07-13T07:03:40;101366.0;;;20.51;75.08
50652;BME280;66928;52.086;5.240;2023-07-13T07:06:52;101363.0;;;20.41;76.03
50652;BME280;66928;52.086;5.240;2023-07-13T07:08:28;101372.0;;;20.43;75.89
50652;BME280;66928;52.086;5.240;2023-07-13T07:10:05;101375.0;;;20.43;76.17
50652;BME280;66928;52.086;5.240;2023-07-13T07:11:42;101381.0;;;20.36;77.3
50652;BME280;66928;52.086;5.240;2023-07-13T07:14:55;101377.0;;;20.39;76.86
50652;BME280;66928;52.086;5.240;2023-07-13T07:16:31;101377.0;;;20.47;77.12
50652;BME280;66928;52.086;5.240;2023-07-13T07:18:07;101377.0;;;20.55;77.25
50652;BME280;66928;52.086;5.240;2023-07-13T07:21:19;101378.0;;;20.53;77.28
50652;BME280;66928;52.086;5.240;2023-07-13T07:22:55;101383.0;;;20.48;77.8
50652;BME280;66928;52.086;5.240;2023-07-13T07:24:32;101386.0;;;20.43;77.11
50652;BME280;66928;52.086;5.240;2023-07-13T07:27:44;101385.0;;;20.61;77.27
50652;BME280;66928;52.086;5.240;2023-07-13T07:29:21;101386.0;;;20.43;78.47
50652;BME280;66928;52.086;5.240;2023-07-13T07:30:58;101389.0;;;20.59;77.33
50652;BME280;66928;52.086;5.240;2023-07-13T07:34:10;101385.0;;;20.64;77.3
50652;BME280;66928;52.086;5.240;2023-07-13T07:35:46;101390.0;;;20.75;77.44
50652;BME280;66928;52.086;5.240;2023-07-13T07:37:23;101384.0;;;20.7;78.0
50652;BME280;66928;52.086;5.240;2023-07-13T07:39:00;101377.0;;;20.67;77.69
50652;BME280;66928;52.086;5.240;2023-07-13T07:42:13;101375.0;;;20.79;77.55
50652;BME280;66928;52.086;5.240;2023-07-13T07:43:49;101372.0;;;20.83;77.44
50652;BME280;66928;52.086;5.240;2023-07-13T07:45:26;101370.0;;;20.96;76.24
50652;BME280;66928;52.086;5.240;2023-07-13T07:48:40;101370.0;;;20.99;76.14
50652;BME280;66928;52.086;5.240;2023-07-13T07:50:16;101375.0;;;21.17;75.37
50652;BME280;66928;52.086;5.240;2023-07-13T07:51:52;101375.0;;;21.24;74.58
50652;BME280;66928;52.086;5.240;2023-07-13T07:55:06;101378.0;;;21.44;73.72
50652;BME280;66928;52.086;5.240;2023-07-13T07:56:43;101380.0;;;21.45;73.58
50652;BME280;66928;52.086;5.240;2023-07-13T07:58:20;101375.0;;;21.52;73.11
50652;BME280;66928;52.086;5.240;2023-07-13T07:59:57;101375.0;;;21.46;72.75
50652;BME280;66928;52.086;5.240;2023-07-13T08:03:09;101385.0;;;21.45;72.7
50652;BME280;66928;52.086;5.240;2023-07-13T08:04:46;101384.0;;;21.49;72.5
50652;BME280;66928;52.086;5.240;2023-07-13T08:06:23;101388.0;;;21.46;71.97
50652;BME280;66928;52.086;5.240;2023-07-13T08:09:36;101383.0;;;21.34;72.45
50652;BME280;66928;52.086;5.240;2023-07-13T08:11:12;101380.0;;;21.4;71.58
50652;BME280;66928;52.086;5.240;2023-07-13T08:12:49;101368.0;;;21.58;70.72
50652;BME280;66928;52.086;5.240;2023-07-13T08:16:03;101371.0;;;21.66;70.41
50652;BME280;66928;52.086;5.240;2023-07-13T08:17:40;101373.0;;;21.79;70.39
50652;BME280;66928;52.086;5.240;2023-07-13T08:19:17;101371.0;;;21.73;69.91
50652;BME280;66928;52.086;5.240;2023-07-13T08:20:53;101378.0;;;21.84;69.8
50652;BME280;66928;52.086;5.240;2023-07-13T08:24:06;101376.0;;;21.84;68.81
50652;BME280;66928;52.086;5.240;2023-07-13T08:25:50;101380.0;;;21.98;68.3
50652;BME280;66928;52.086;5.240;2023-07-13T08:27:28;101384.0;;;22.01;67.74
50652;BME280;66928;52.086;5.240;2023-07-13T08:29:04;101382.0;;;22.12;66.6
50652;BME280;66928;52.086;5.240;2023-07-13T08:32:17;101393.0;;;22.07;64.58
50652;BME280;66928;52.086;5.240;2023-07-13T08:33:55;101393.0;;;21.95;63.98
50652;BME280;66928;52.086;5.240;2023-07-13T08:35:32;101391.0;;;21.82;61.81
50652;BME280;66928;52.086;5.240;2023-07-13T08:38:45;101394.0;;;21.78;61.85
50652;BME280;66928;52.086;5.240;2023-07-13T08:40:25;101405.0;;;21.41;63.03
50652;BME280;66928;52.086;5.240;2023-07-13T08:42:05;101401.0;;;21.3;64.11
50652;BME280;66928;52.086;5.240;2023-07-13T08:43:49;101406.0;;;21.16;64.97
50652;BME280;66928;52.086;5.240;2023-07-13T08:47:21;101407.0;;;21.32;65.36
50652;BME280;66928;52.086;5.240;2023-07-13T08:49:04;101413.0;;;21.16;66.2
50652;BME280;66928;52.086;5.240;2023-07-13T08:50:48;101405.0;;;21.11;65.97
50652;BME280;66928;52.086;5.240;2023-07-13T08:52:36;101412.0;;;21.09;66.08
50652;BME280;66928;52.086;5.240;2023-07-13T08:54:21;101409.0;;;21.17;65.84
50652;BME280;66928;52.086;5.240;2023-07-13T08:57:38;101405.0;;;21.02;66.99
50652;BME280;66928;52.086;5.240;2023-07-13T08:59:18;101410.0;;;21.0;67.23
50652;BME280;66928;52.086;5.240;2023-07-13T09:01:03;101409.0;;;20.99;67.44
50652;BME280;66928;52.086;5.240;2023-07-13T09:02:48;101406.0;;;20.92;67.62
50652;BME280;66928;52.086;5.240;2023-07-13T09:06:13;101406.0;;;21.07;66.98
50652;BME280;66928;52.086;5.240;2023-07-13T09:08:01;101403.0;;;21.01;66.72
50652;BME280;66928;52.086;5.240;2023-07-13T09:09:56;101399.0;;;21.18;66.6
50652;BME280;66928;52.086;5.240;2023-07-13T09:11:50;101401.0;;;21.2;66.42
50652;BME280;66928;52.086;5.240;2023-07-13T09:13:40;101409.0;;;21.16;65.97
50652;BME280;66928;52.086;5.240;2023-07-13T09:15:26;101410.0;;;21.41;65.92
50652;BME280;66928;52.086;5.240;2023-07-13T09:18:50;101408.0;;;21.49;65.84
50652;BME280;66928;52.086;5.240;2023-07-13T09:20:31;101401.0;;;21.45;65.87
50652;BME280;66928;52.086;5.240;2023-07-13T09:22:16;101405.0;;;21.57;65.86
50652;BME280;66928;52.086;5.240;2023-07-13T09:23:59;101396.0;;;21.69;66.1
50652;BME280;66928;52.086;5.240;2023-07-13T09:26:01;101399.0;;;22.0;65.08
50652;BME280;66928;52.086;5.240;2023-07-13T09:27:44;101401.0;;;21.96;64.12
50652;BME280;66928;52.086;5.240;2023-07-13T09:31:09;101408.0;;;21.61;63.0
50652;BME280;66928;52.086;5.240;2023-07-13T09:32:51;101421.0;;;21.64;64.28
50652;BME280;66928;52.086;5.240;2023-07-13T09:34:29;101408.0;;;21.82;63.73
50652;BME280;66928;52.086;5.240;2023-07-13T09:36:20;101406.0;;;21.88;62.71
50652;BME280;66928;52.086;5.240;2023-07-13T09:41:29;101408.0;;;21.8;62.51
50652;BME280;66928;52.086;5.240;2023-07-13T09:43:11;101426.0;;;20.62;68.08
50652;BME280;66928;52.086;5.240;2023-07-13T09:44:53;101433.0;;;19.91;68.8
50652;BME280;66928;52.086;5.240;2023-07-13T09:46:30;101430.0;;;19.61;71.08
50652;BME280;66928;52.086;5.240;2023-07-13T09:49:54;101430.0;;;19.75;70.83
50652;BME280;66928;52.086;5.240;2023-07-13T09:51:31;101430.0;;;20.02;71.37
50652;BME280;66928;52.086;5.240;2023-07-13T09:53:12;101431.0;;;19.66;72.55
50652;BME280;66928;52.086;5.240;2023-07-13T09:56:29;101427.0;;;20.29;70.99
50652;BME280;66928;52.086;5.240;2023-07-13T09:58:11;101431.0;;;20.36;70.45
50652;BME280;66928;52.086;5.240;2023-07-13T09:59:50;101434.0;;;20.6;70.66
50652;BME280;66928;52.086;5.240;2023-07-13T10:01:33;101434.0;;;20.47;71.81
50652;BME280;66928;52.086;5.240;2023-07-13T10:04:57;101432.0;;;20.88;70.09
50652;BME280;66928;52.086;5.240;2023-07-13T10:06:34;101433.0;;;21.09;69.34
50652;BME280;66928;52.086;5.240;2023-07-13T10:08:21;101437.0;;;21.26;68.62
50652;BME280;66928;52.086;5.240;2023-07-13T10:09:59;101440.0;;;21.5;67.47
50652;BME280;66928;52.086;5.240;2023-07-13T10:11:40;101437.0;;;21.43;67.16
50652;BME280;66928;52.086;5.240;2023-07-13T10:15:18;101441.0;;;21.63;66.47
50652;BME280;66928;52.086;5.240;2023-07-13T10:16:59;101443.0;;;21.55;66.92
50652;BME280;66928;52.086;5.240;2023-07-13T10:18:40;101441.0;;;21.78;66.83
50652;BME280;66928;52.086;5.240;2023-07-13T10:20:21;101441.0;;;21.88;66.19
50652;BME280;66928;52.086;5.240;2023-07-13T10:23:38;101443.0;;;21.98;65.44
50652;BME280;66928;52.086;5.240;2023-07-13T10:25:17;101452.0;;;21.57;63.81
50652;BME280;66928;52.086;5.240;2023-07-13T10:26:58;101447.0;;;21.42;65.14
50652;BME280;66928;52.086;5.240;2023-07-13T10:28:52;101451.0;;;21.54;63.8
50652;BME280;66928;52.086;5.240;2023-07-13T10:30:33;101455.0;;;21.63;64.6
50652;BME280;66928;52.086;5.240;2023-07-13T10:33:51;101457.0;;;21.49;64.48
50652;BME280;66928;52.086;5.240;2023-07-13T10:35:29;101459.0;;;21.06;63.35
50652;BME280;66928;52.086;5.240;2023-07-13T10:37:07;101467.0;;;21.17;63.79
50652;BME280;66928;52.086;5.240;2023-07-13T10:38:52;101455.0;;;20.93;62.9
50652;BME280;66928;52.086;5.240;2023-07-13T10:42:15;101460.0;;;21.13;63.2
50652;BME280;66928;52.086;5.240;2023-07-13T10:44:18;101456.0;;;21.29;62.79
50652;BME280;66928;52.086;5.240;2023-07-13T10:45:56;101446.0;;;21.14;60.38
50652;BME280;66928;52.086;5.240;2023-07-13T10:47:33;101457.0;;;21.3;60.3
50652;BME280;66928;52.086;5.240;2023-07-13T10:50:50;101457.0;;;21.42;59.94
50652;BME280;66928;52.086;5.240;2023-07-13T10:52:41;101455.0;;;21.69;60.79
50652;BME280;66928;52.086;5.240;2023-07-13T10:54:27;101459.0;;;21.78;58.85
50652;BME280;66928;52.086;5.240;2023-07-13T10:56:18;101455.0;;;22.06;59.43
50652;BME280;66928;52.086;5.240;2023-07-13T10:58:00;101449.0;;;22.16;57.96
50652;BME280;66928;52.086;5.240;2023-07-13T11:01:16;101451.0;;;22.34;58.23
50652;BME280;66928;52.086;5.240;2023-07-13T11:02:57;101458.0;;;21.95;59.88
50652;BME280;66928;52.086;5.240;2023-07-13T11:04:41;101457.0;;;21.62;60.88
50652;BME280;66928;52.086;5.240;2023-07-13T11:06:33;101460.0;;;21.78;60.69
50652;BME280;66928;52.086;5.240;2023-07-13T11:08:16;101457.0;;;21.67;60.95
50652;BME280;66928;52.086;5.240;2023-07-13T11:11:37;101460.0;;;21.72;61.76
50652;BME280;66928;52.086;5.240;2023-07-13T11:13:37;101462.0;;;21.9;61.32
50652;BME280;66928;52.086;5.240;2023-07-13T11:15:43;101467.0;;;22.23;60.79
50652;BME280;66928;52.086;5.240;2023-07-13T11:17:34;101466.0;;;21.77;60.69
50652;BME280;66928;52.086;5.240;2023-07-13T11:19:38;101466.0;;;21.56;62.11
50652;BME280;66928;52.086;5.240;2023-07-13T11:21:18;101476.0;;;21.15;65.58
50652;BME280;66928;52.086;5.240;2023-07-13T11:23:09;101473.0;;;20.75;77.55
50652;BME280;66928;52.086;5.240;2023-07-13T11:25:00;101473.0;;;20.52;77.74
50652;BME280;66928;52.086;5.240;2023-07-13T11:28:22;101470.0;;;20.52;76.61
50652;BME280;66928;52.086;5.240;2023-07-13T11:30:23;101472.0;;;20.58;74.99
50652;BME280;66928;52.086;5.240;2023-07-13T11:32:10;101474.0;;;20.68;76.02
50652;BME280;66928;52.086;5.240;2023-07-13T11:34:00;101480.0;;;20.38;76.34
50652;BME280;66928;52.086;5.240;2023-07-13T11:35:41;101492.0;;;20.47;76.7
50652;BME280;66928;52.086;5.240;2023-07-13T11:39:02;101483.0;;;20.93;75.87
50652;BME280;66928;52.086;5.240;2023-07-13T11:40:43;101486.0;;;21.03;74.16
50652;BME280;66928;52.086;5.240;2023-07-13T11:42:21;101482.0;;;21.13;74.77
50652;BME280;66928;52.086;5.240;2023-07-13T11:44:05;101485.0;;;21.22;74.0
50652;BME280;66928;52.086;5.240;2023-07-13T11:45:44;101485.0;;;21.27;72.66
50652;BME280;66928;52.086;5.240;2023-07-13T11:48:59;101492.0;;;21.47;72.37
50652;BME280;66928;52.086;5.240;2023-07-13T11:50:35;101495.0;;;21.6;72.92
50652;BME280;66928;52.086;5.240;2023-07-13T11:52:12;101487.0;;;21.48;74.45
50652;BME280;66928;52.086;5.240;2023-07-13T11:55:30;101495.0;;;21.5;72.47
50652;BME280;66928;52.086;5.240;2023-07-13T11:57:14;101492.0;;;21.5;72.77
50652;BME280;66928;52.086;5.240;2023-07-13T11:59:06;101490.0;;;21.71;71.8
50652;BME280;66928;52.086;5.240;2023-07-13T12:00:44;101489.0;;;21.91;71.55
50652;BME280;66928;52.086;5.240;2023-07-13T12:04:06;101482.0;;;21.82;72.02
50652;BME280;66928;52.086;5.240;2023-07-13T12:05:57;101480.0;;;21.63;68.38
50652;BME280;66928;52.086;5.240;2023-07-13T12:07:36;101478.0;;;21.95;67.19
50652;BME280;66928;52.086;5.240;2023-07-13T12:09:14;101477.0;;;22.07;67.66
50652;BME280;66928;52.086;5.240;2023-07-13T12:11:00;101476.0;;;21.87;65.67
50652;BME280;66928;52.086;5.240;2023-07-13T12:14:24;101481.0;;;21.79;66.6
50652;BME280;66928;52.086;5.240;2023-07-13T12:16:00;101480.0;;;22.0;64.58
50652;BME280;66928;52.086;5.240;2023-07-13T12:17:36;101480.0;;;21.89;62.86
50652;BME280;66928;52.086;5.240;2023-07-13T12:19:17;101487.0;;;22.02;62.53
50652;BME280;66928;52.086;5.240;2023-07-13T12:22:34;101485.0;;;21.96;61.18
50652;BME280;66928;52.086;5.240;2023-07-13T12:24:14;101477.0;;;21.87;60.32
50652;BME280;66928;52.086;5.240;2023-07-13T12:25:52;101477.0;;;22.11;59.81
50652;BME280;66928;52.086;5.240;2023-07-13T12:29:06;101480.0;;;22.27;57.32
50652;BME280;66928;52.086;5.240;2023-07-13T12:30:48;101472.0;;;22.38;57.07
50652;BME280;66928;52.086;5.240;2023-07-13T12:32:26;101475.0;;;22.54;56.21
50652;BME280;66928;52.086;5.240;2023-07-13T12:34:08;101476.0;;;22.77;56.55
50652;BME280;66928;52.086;5.240;2023-07-13T12:37:25;101482.0;;;22.4;55.9
50652;BME280;66928;52.086;5.240;2023-07-13T12:39:11;101480.0;;;22.29;56.06
50652;BME280;66928;52.086;5.240;2023-07-13T12:40:50;101477.0;;;22.4;55.95
50652;BME280;66928;52.086;5.240;2023-07-13T12:42:28;101482.0;;;22.33;56.17
50652;BME280;66928;52.086;5.240;2023-07-13T12:45:57;101482.0;;;22.39;54.06
50652;BME280;66928;52.086;5.240;2023-07-13T12:47:39;101481.0;;;22.38;54.41
50652;BME280;66928;52.086;5.240;2023-07-13T12:49:17;101470.0;;;22.57;53.49
50652;BME280;66928;52.086;5.240;2023-07-13T12:51:00;101477.0;;;22.48;53.45
50652;BME280;66928;52.086;5.240;2023-07-13T12:54:16;101485.0;;;22.48;53.83
50652;BME280;66928;52.086;5.240;2023-07-13T12:55:56;101478.0;;;22.75;54.83
50652;BME280;66928;52.086;5.240;2023-07-13T12:57:39;101482.0;;;22.87;53.89
50652;BME280;66928;52.086;5.240;2023-07-13T12:59:19;101478.0;;;22.92;51.82
50652;BME280;66928;52.086;5.240;2023-07-13T13:02:37;101476.0;;;23.2;54.15
50652;BME280;66928;52.086;5.240;2023-07-13T13:04:13;101491.0;;;23.01;51.89
50652;BME280;66928;52.086;5.240;2023-07-13T13:05:49;101480.0;;;23.25;52.2
50652;BME280;66928;52.086;5.240;2023-07-13T13:07:26;101485.0;;;23.23;50.46
50652;BME280;66928;52.086;5.240;2023-07-13T13:10:39;101476.0;;;23.39;51.51
50652;BME280;66928;52.086;5.240;2023-07-13T13:12:17;101483.0;;;23.02;49.95
50652;BME280;66928;52.086;5.240;2023-07-13T13:13:53;101483.0;;;23.55;50.89
50652;BME280;66928;52.086;5.240;2023-07-13T13:17:18;101478.0;;;23.84;50.52
50652;BME280;66928;52.086;5.240;2023-07-13T13:18:56;101486.0;;;23.2;50.3
50652;BME280;66928;52.086;5.240;2023-07-13T13:20:33;101487.0;;;23.64;49.61
50652;BME280;66928;52.086;5.240;2023-07-13T13:22:09;101482.0;;;23.73;49.12
50652;BME280;66928;52.086;5.240;2023-07-13T13:25:23;101488.0;;;23.71;49.36
50652;BME280;66928;52.086;5.240;2023-07-13T13:26:59;101495.0;;;23.34;48.11
50652;BME280;66928;52.086;5.240;2023-07-13T13:28:36;101485.0;;;23.91;48.49
50652;BME280;66928;52.086;5.240;2023-07-13T13:31:51;101491.0;;;23.87;48.54
50652;BME280;66928;52.086;5.240;2023-07-13T13:33:27;101496.0;;;23.41;48.31
50652;BME280;66928;52.086;5.240;2023-07-13T13:35:05;101491.0;;;23.93;48.7
50652;BME280;66928;52.086;5.240;2023-07-13T13:36:43;101493.0;;;24.06;48.98
50652;BME280;66928;52.086;5.240;2023-07-13T13:40:11;101495.0;;;24.1;48.81
50652;BME280;66928;52.086;5.240;2023-07-13T13:41:49;101501.0;;;24.07;47.46
50652;BME280;66928;52.086;5.240;2023-07-13T13:43:27;101505.0;;;23.33;49.43
50652;BME280;66928;52.086;5.240;2023-07-13T13:45:04;101492.0;;;23.59;49.69
50652;BME280;66928;52.086;5.240;2023-07-13T13:48:20;101495.0;;;23.63;48.82
50652;BME280;66928;52.086;5.240;2023-07-13T13:50:15;101502.0;;;23.64;49.56
50652;BME280;66928;52.086;5.240;2023-07-13T13:51:52;101499.0;;;23.69;49.34
50652;BME280;66928;52.086;5.240;2023-07-13T13:53:29;101497.0;;;23.82;49.29
50652;BME280;66928;52.086;5.240;2023-07-13T13:56:50;101493.0;;;23.76;48.89
50652;BME280;66928;52.086;5.240;2023-07-13T13:58:27;101494.0;;;22.91;50.52
50652;BME280;66928;52.086;5.240;2023-07-13T14:00:05;101495.0;;;23.12;50.87
50652;BME280;66928;52.086;5.240;2023-07-13T14:01:43;101499.0;;;22.67;52.14
50652;BME280;66928;52.086;5.240;2023-07-13T14:04:59;101506.0;;;22.66;52.59
50652;BME280;66928;52.086;5.240;2023-07-13T14:06:36;101508.0;;;22.45;53.61
50652;BME280;66928;52.086;5.240;2023-07-13T14:08:14;101510.0;;;22.12;53.76
50652;BME280;66928;52.086;5.240;2023-07-13T14:11:30;101502.0;;;22.18;53.82
50652;BME280;66928;52.086;5.240;2023-07-13T14:13:16;101506.0;;;21.97;54.69
50652;BME280;66928;52.086;5.240;2023-07-13T14:14:53;101506.0;;;22.0;54.53
50652;BME280;66928;52.086;5.240;2023-07-13T14:16:31;101508.0;;;21.94;54.72
50652;BME280;66928;52.086;5.240;2023-07-13T14:19:44;101512.0;;;21.96;55.13
50652;BME280;66928;52.086;5.240;2023-07-13T14:21:21;101508.0;;;21.96;54.89
50652;BME280;66928;52.086;5.240;2023-07-13T14:22:58;101508.0;;;22.08;54.81
50652;BME280;66928;52.086;5.240;2023-07-13T14:26:12;101511.0;;;21.95;54.87
50652;BME280;66928;52.086;5.240;2023-07-13T14:27:53;101509.0;;;22.09;55.15
50652;BME280;66928;52.086;5.240;2023-07-13T14:29:32;101510.0;;;22.12;54.85
50652;BME280;66928;52.086;5.240;2023-07-13T14:31:08;101518.0;;;21.89;54.63
50652;BME280;66928;52.086;5.240;2023-07-13T14:34:22;101524.0;;;21.65;55.37
50652;BME280;66928;52.086;5.240;2023-07-13T14:35:58;101520.0;;;21.68;56.01
50652;BME280;66928;52.086;5.240;2023-07-13T14:37:34;101522.0;;;21.71;56.43
50652;BME280;66928;52.086;5.240;2023-07-13T14:40:50;101523.0;;;21.68;56.06
50652;BME280;66928;52.086;5.240;2023-07-13T14:42:26;101523.0;;;21.53;57.09
50652;BME280;66928;52.086;5.240;2023-07-13T14:44:07;101530.0;;;21.72;56.75
50652;BME280;66928;52.086;5.240;2023-07-13T14:45:46;101518.0;;;21.62;56.48
50652;BME280;66928;52.086;5.240;2023-07-13T14:49:04;101521.0;;;21.56;57.24
50652;BME280;66928;52.086;5.240;2023-07-13T14:50:47;101513.0;;;21.57;57.08
50652;BME280;66928;52.086;5.240;2023-07-13T14:52:28;101511.0;;;21.92;56.84
50652;BME280;66928;52.086;5.240;2023-07-13T14:54:07;101512.0;;;21.95;56.7
50652;BME280;66928;52.086;5.240;2023-07-13T14:57:19;101510.0;;;22.13;55.77
50652;BME280;66928;52.086;5.240;2023-07-13T14:58:56;101506.0;;;22.32;54.45
50652;BME280;66928;52.086;5.240;2023-07-13T15:00:34;101508.0;;;22.53;53.86
50652;BME280;66928;52.086;5.240;2023-07-13T15:03:53;101513.0;;;22.75;51.23
50652;BME280;66928;52.086;5.240;2023-07-13T15:05:31;101505.0;;;23.06;51.43
50652;BME280;66928;52.086;5.240;2023-07-13T15:07:10;101518.0;;;22.35;51.02
50652;BME280;66928;52.086;5.240;2023-07-13T15:08:46;101516.0;;;22.17;51.71
50652;BME280;66928;52.086;5.240;2023-07-13T15:12:03;101514.0;;;22.69;51.31
50652;BME280;66928;52.086;5.240;2023-07-13T15:13:41;101513.0;;;23.01;50.79
50652;BME280;66928;52.086;5.240;2023-07-13T15:15:18;101518.0;;;22.94;50.53
50652;BME280;66928;52.086;5.240;2023-07-13T15:18:32;101519.0;;;23.04;51.04
50652;BME280;66928;52.086;5.240;2023-07-13T15:20:18;101520.0;;;22.88;51.36
50652;BME280;66928;52.086;5.240;2023-07-13T15:21:56;101522.0;;;22.98;51.55
50652;BME280;66928;52.086;5.240;2023-07-13T15:23:33;101508.0;;;23.34;50.78
50652;BME280;66928;52.086;5.240;2023-07-13T15:26:52;101515.0;;;23.43;49.05
50652;BME280;66928;52.086;5.240;2023-07-13T15:28:28;101520.0;;;22.89;49.16
50652;BME280;66928;52.086;5.240;2023-07-13T15:30:05;101520.0;;;22.72;51.18
50652;BME280;66928;52.086;5.240;2023-07-13T15:31:42;101519.0;;;22.77;51.0
50652;BME280;66928;52.086;5.240;2023-07-13T15:35:02;101522.0;;;22.8;51.3
50652;BME280;66928;52.086;5.240;2023-07-13T15:36:39;101530.0;;;22.56;51.41
50652;BME280;66928;52.086;5.240;2023-07-13T15:38:17;101524.0;;;22.2;51.4
50652;BME280;66928;52.086;5.240;2023-07-13T15:41:31;101524.0;;;22.24;51.61
50652;BME280;66928;52.086;5.240;2023-07-13T15:43:10;101526.0;;;22.11;52.29
50652;BME280;66928;52.086;5.240;2023-07-13T15:44:47;101524.0;;;22.28;52.34
50652;BME280;66928;52.086;5.240;2023-07-13T15:46:24;101520.0;;;22.15;53.26
50652;BME280;66928;52.086;5.240;2023-07-13T15:49:38;101524.0;;;22.11;53.48
50652;BME280;66928;52.086;5.240;2023-07-13T15:51:20;101527.0;;;21.93;54.05
50652;BME280;66928;52.086;5.240;2023-07-13T15:53:00;101526.0;;;21.65;55.08
50652;BME280;66928;52.086;5.240;2023-07-13T15:56:19;101521.0;;;21.75;54.95
50652;BME280;66928;52.086;5.240;2023-07-13T15:57:57;101528.0;;;21.71;55.32
50652;BME280;66928;52.086;5.240;2023-07-13T15:59:32;101528.0;;;21.92;55.55
50652;BME280;66928;52.086;5.240;2023-07-13T16:01:10;101524.0;;;22.15;54.6
50652;BME280;66928;52.086;5.240;2023-07-13T16:04:23;101528.0;;;22.55;53.62
50652;BME280;66928;52.086;5.240;2023-07-13T16:05:59;101523.0;;;22.71;53.08
50652;BME280;66928;52.086;5.240;2023-07-13T16:07:35;101520.0;;;22.98;52.68
50652;BME280;66928;52.086;5.240;2023-07-13T16:10:55;101524.0;;;23.04;51.98
50652;BME280;66928;52.086;5.240;2023-07-13T16:12:32;101522.0;;;22.96;51.38
50652;BME280;66928;52.086;5.240;2023-07-13T16:14:11;101526.0;;;22.57;51.7
50652;BME280;66928;52.086;5.240;2023-07-13T16:15:50;101526.0;;;22.51;51.55
50652;BME280;66928;52.086;5.240;2023-07-13T16:19:04;101532.0;;;22.34;51.82
50652;BME280;66928;52.086;5.240;2023-07-13T16:20:42;101521.0;;;22.15;52.63
50652;BME280;66928;52.086;5.240;2023-07-13T16:22:19;101525.0;;;22.46;52.16
50652;BME280;66928;52.086;5.240;2023-07-13T16:25:34;101530.0;;;22.47;52.27
50652;BME280;66928;52.086;5.240;2023-07-13T16:27:10;101526.0;;;22.22;52.75
50652;BME280;66928;52.086;5.240;2023-07-13T16:28:47;101531.0;;;22.46;52.96
50652;BME280;66928;52.086;5.240;2023-07-13T16:30:24;101526.0;;;22.64;50.58
50652;BME280;66928;52.086;5.240;2023-07-13T16:33:40;101523.0;;;22.98;50.1
50652;BME280;66928;52.086;5.240;2023-07-13T16:35:18;101519.0;;;23.25;49.66